createdAt,value
2018-08-23T00:00:45.935Z,100840.73
2018-08-23T00:03:20.600Z,100839.70
2018-08-23T00:05:52.298Z,100836.52
2018-08-23T00:08:22.744Z,100837.25
2018-08-23T00:10:53.206Z,100834.52
2018-08-23T00:13:24.071Z,100828.48
2018-08-23T00:15:53.622Z,100828.71
2018-08-23T00:18:23.144Z,100831.80
2018-08-23T00:20:52.601Z,100824.23
2018-08-23T00:23:22.172Z,100819.69
2018-08-23T00:25:51.466Z,100816.99
2018-08-23T00:28:20.903Z,100817.30
2018-08-23T00:30:51.059Z,100814.19
2018-08-23T00:33:20.386Z,100814.19
2018-08-23T00:35:49.690Z,100815.95
2018-08-23T00:38:19.140Z,100807.73
2018-08-23T00:40:48.878Z,100807.33
2018-08-23T00:43:18.367Z,100807.75
2018-08-23T00:45:47.578Z,100809.83
2018-08-23T00:48:16.788Z,100807.02
2018-08-23T00:50:54.706Z,100815.84
2018-08-23T00:53:24.215Z,100810.53
2018-08-23T00:56:10.683Z,100807.84
2018-08-23T00:58:41.710Z,100805.64
2018-08-23T01:01:12.878Z,100813.31
2018-08-23T01:03:42.918Z,100803.88
2018-08-23T01:06:13.003Z,100806.02
2018-08-23T01:08:42.287Z,100804.38
2018-08-23T01:11:12.031Z,100798.98
2018-08-23T01:13:41.894Z,100798.64
2018-08-23T01:16:13.498Z,100797.21
2018-08-23T01:18:43.311Z,100790.78
2018-08-23T01:21:12.878Z,100790.47
2018-08-23T01:23:43.543Z,100793.90
2018-08-23T01:26:12.948Z,100788.98
2018-08-23T01:28:42.434Z,100789.13
2018-08-23T01:31:25.342Z,100786.05
2018-08-23T01:33:57.360Z,100787.39
2018-08-23T01:36:31.881Z,100787.61
2018-08-23T01:39:05.408Z,100786.80
2018-08-23T01:41:34.921Z,100787.18
2018-08-23T01:44:04.459Z,100789.06
2018-08-23T01:46:39.243Z,100783.80
2018-08-23T01:49:09.712Z,100779.22
2018-08-23T01:51:39.041Z,100782.83
2018-08-23T01:54:08.596Z,100780.74
2018-08-23T01:56:38.306Z,100780.13
2018-08-23T01:59:07.855Z,100784.72
2018-08-23T02:01:37.139Z,100776.02
2018-08-23T02:04:07.071Z,100773.22
2018-08-23T02:06:36.944Z,100769.52
2018-08-23T02:09:08.203Z,100768.67
2018-08-23T02:11:37.970Z,100772.71
2018-08-23T02:14:07.500Z,100763.94
2018-08-23T02:16:48.247Z,100760.47
2018-08-23T02:19:17.572Z,100764.32
2018-08-23T02:21:47.091Z,100760.05
2018-08-23T02:24:20.774Z,100755.69
2018-08-23T02:26:50.190Z,100760.22
2018-08-23T02:29:29.414Z,100755.95
2018-08-23T02:31:58.816Z,100754.28
2018-08-23T02:34:32.449Z,100753.42
2018-08-23T02:37:01.779Z,100751.28
2018-08-23T02:39:31.215Z,100746.56
2018-08-23T02:42:00.932Z,100743.52
2018-08-23T02:44:30.215Z,100743.39
2018-08-23T02:47:00.393Z,100744.18
2018-08-23T02:49:30.183Z,100742.21
2018-08-23T02:51:59.827Z,100740.12
2018-08-23T02:54:29.270Z,100735.77
2018-08-23T02:56:59.826Z,100733.02
2018-08-23T02:59:30.170Z,100730.45
2018-08-23T03:01:59.442Z,100726.20
2018-08-23T03:04:29.627Z,100726.30
2018-08-23T03:07:04.959Z,100730.33
2018-08-23T03:09:36.583Z,100723.52
2018-08-23T03:12:11.498Z,100722.01
2018-08-23T03:14:41.604Z,100727.05
2018-08-23T03:17:24.478Z,100723.52
2018-08-23T03:20:02.613Z,100714.56
2018-08-23T03:22:33.216Z,100715.66
2018-08-23T03:25:04.331Z,100719.80
2018-08-23T03:27:33.824Z,100717.44
2018-08-23T03:30:04.410Z,100716.06
2018-08-23T03:32:33.648Z,100720.66
2018-08-23T03:35:03.178Z,100712.63
2018-08-23T03:37:32.416Z,100709.44
2018-08-23T03:40:01.734Z,100712.63
2018-08-23T03:42:31.222Z,100718.28
2018-08-23T03:45:01.754Z,100719.19
2018-08-23T03:47:38.102Z,100720.07
2018-08-23T03:50:09.168Z,100716.43
2018-08-23T03:52:39.383Z,100721.49
2018-08-23T03:55:10.775Z,100722.38
2018-08-23T03:57:45.321Z,100721.11
2018-08-23T04:00:14.789Z,100723.80
2018-08-23T04:02:44.262Z,100720.59
2018-08-23T04:05:18.806Z,100715.17
2018-08-23T04:07:48.207Z,100720.02
2018-08-23T04:10:17.711Z,100724.77
2018-08-23T04:12:47.195Z,100716.56
2018-08-23T04:15:24.159Z,100720.23
2018-08-23T04:17:53.644Z,100720.37
2018-08-23T04:20:23.780Z,100725.39
2018-08-23T04:22:53.695Z,100726.24
2018-08-23T04:25:22.967Z,100718.00
2018-08-23T04:27:52.644Z,100723.38
2018-08-23T04:30:22.163Z,100723.16
2018-08-23T04:32:52.134Z,100719.52
2018-08-23T04:35:25.008Z,100722.52
2018-08-23T04:37:54.517Z,100723.50
2018-08-23T04:40:24.337Z,100723.41
2018-08-23T04:42:54.290Z,100724.62
2018-08-23T04:45:24.970Z,100717.98
2018-08-23T04:48:06.143Z,100723.22
2018-08-23T04:50:36.137Z,100722.46
2018-08-23T04:53:05.375Z,100718.22
2018-08-23T04:55:34.594Z,100719.11
2018-08-23T04:58:04.784Z,100721.69
2018-08-23T05:00:34.442Z,100721.25
2018-08-23T05:03:03.990Z,100717.01
2018-08-23T05:05:33.696Z,100720.46
2018-08-23T05:08:03.176Z,100718.44
2018-08-23T05:10:32.635Z,100715.44
2018-08-23T05:13:01.952Z,100717.55
2018-08-23T05:15:31.444Z,100719.56
2018-08-23T05:18:00.967Z,100718.22
2018-08-23T05:20:30.554Z,100720.72
2018-08-23T05:23:03.494Z,100715.48
2018-08-23T05:25:32.957Z,100712.75
2018-08-23T05:28:20.694Z,100708.72
2018-08-23T05:30:50.723Z,100715.94
2018-08-23T05:33:21.515Z,100707.83
2018-08-23T05:35:50.890Z,100710.11
2018-08-23T05:38:21.102Z,100714.59
2018-08-23T05:40:55.459Z,100710.83
2018-08-23T05:43:25.891Z,100716.50
2018-08-23T05:45:57.309Z,100713.98
2018-08-23T05:48:29.656Z,100708.02
2018-08-23T05:51:08.406Z,100708.25
2018-08-23T05:53:50.739Z,100707.71
2018-08-23T05:56:20.599Z,100699.45
2018-08-23T05:58:49.999Z,100704.55
2018-08-23T06:01:19.488Z,100702.37
2018-08-23T06:03:49.182Z,100699.23
2018-08-23T06:06:18.678Z,100693.73
2018-08-23T06:08:50.336Z,100689.05
2018-08-23T06:11:19.788Z,100682.82
2018-08-23T06:13:49.290Z,100686.19
2018-08-23T06:16:18.554Z,100683.77
2018-08-23T06:18:48.085Z,100685.75
2018-08-23T06:21:17.547Z,100686.36
2018-08-23T06:23:55.120Z,100692.69
2018-08-23T06:26:37.522Z,100691.80
2018-08-23T06:29:07.226Z,100691.57
2018-08-23T06:31:43.774Z,100688.09
2018-08-23T06:34:13.141Z,100692.64
2018-08-23T06:36:46.685Z,100691.14
2018-08-23T06:39:16.074Z,100690.83
2018-08-23T06:41:45.609Z,100689.52
2018-08-23T06:44:15.074Z,100691.25
2018-08-23T06:46:45.299Z,100688.87
2018-08-23T06:49:14.519Z,100689.85
2018-08-23T06:51:44.047Z,100687.81
2018-08-23T06:54:13.498Z,100688.10
2018-08-23T06:56:42.987Z,100687.41
2018-08-23T06:59:12.694Z,100693.38
2018-08-23T07:01:47.832Z,100690.53
2018-08-23T07:04:17.226Z,100685.45
2018-08-23T07:06:46.834Z,100691.56
2018-08-23T07:09:17.659Z,100683.77
2018-08-23T07:11:47.026Z,100685.72
2018-08-23T07:14:17.475Z,100688.50
2018-08-23T07:16:50.567Z,100690.91
2018-08-23T07:19:32.338Z,100696.02
2018-08-23T07:22:03.300Z,100698.89
2018-08-23T07:24:43.213Z,100695.48
2018-08-23T07:27:14.209Z,100700.55
2018-08-23T07:29:45.639Z,100704.21
2018-08-23T07:32:19.214Z,100699.10
2018-08-23T07:35:01.239Z,100699.78
2018-08-23T07:37:32.376Z,100699.38
2018-08-23T07:40:06.811Z,100698.27
2018-08-23T07:42:36.903Z,100700.66
2018-08-23T07:45:07.454Z,100690.58
2018-08-23T07:47:43.211Z,100686.15
2018-08-23T07:50:12.650Z,100694.75
2018-08-23T07:52:45.299Z,100691.20
2018-08-23T07:55:14.701Z,100685.72
2018-08-23T07:57:45.083Z,100688.37
2018-08-23T08:00:38.102Z,100688.25
2018-08-23T08:03:08.486Z,100690.69
2018-08-23T08:05:40.759Z,100690.70
2018-08-23T08:08:11.599Z,100695.57
2018-08-23T08:10:42.972Z,100697.31
2018-08-23T08:13:12.582Z,100689.17
2018-08-23T08:15:42.146Z,100688.02
2018-08-23T08:18:23.581Z,100680.66
2018-08-23T08:21:04.018Z,100679.81
2018-08-23T08:23:33.909Z,100679.47
2018-08-23T08:26:03.275Z,100674.74
2018-08-23T08:28:32.943Z,100672.39
2018-08-23T08:31:02.946Z,100671.92
2018-08-23T08:33:36.819Z,100669.09
2018-08-23T08:36:07.038Z,100655.91
2018-08-23T08:38:36.974Z,100653.20
2018-08-23T08:41:06.345Z,100648.52
2018-08-23T08:43:35.708Z,100651.77
2018-08-23T08:46:05.036Z,100645.72
2018-08-23T08:48:35.421Z,100656.87
2018-08-23T08:51:20.944Z,100658.22
2018-08-23T08:53:50.213Z,100653.86
2018-08-23T08:56:59.003Z,100644.59
2018-08-23T08:59:31.078Z,100641.42
2018-08-23T09:02:01.138Z,100632.47
2018-08-23T09:04:36.126Z,100629.37
2018-08-23T09:07:05.648Z,100636.67
2018-08-23T09:09:39.429Z,100641.54
2018-08-23T09:12:11.108Z,100634.80
2018-08-23T09:14:42.128Z,100636.20
2018-08-23T09:17:27.988Z,100626.70
2018-08-23T09:20:02.219Z,100622.90
2018-08-23T09:22:36.658Z,100619.73
2018-08-23T09:25:08.415Z,100623.61
2018-08-23T09:27:37.902Z,100624.61
2018-08-23T09:30:13.086Z,100622.86
2018-08-23T09:32:42.613Z,100626.57
2018-08-23T09:35:12.310Z,100615.72
2018-08-23T09:37:42.002Z,100609.55
2018-08-23T09:40:11.363Z,100607.44
2018-08-23T09:42:40.643Z,100611.09
2018-08-23T09:45:13.304Z,100611.06
2018-08-23T09:47:43.180Z,100605.74
2018-08-23T09:50:12.719Z,100596.36
2018-08-23T09:52:44.227Z,100589.27
2018-08-23T09:55:15.814Z,100595.31
2018-08-23T09:57:45.871Z,100589.73
2018-08-23T10:00:19.543Z,100590.80
2018-08-23T10:04:59.931Z,100586.52
2018-08-23T10:07:34.479Z,100585.38
2018-08-23T10:10:09.308Z,100581.58
2018-08-23T10:12:43.887Z,100582.60
2018-08-23T10:15:18.665Z,100576.59
2018-08-23T10:17:53.463Z,100565.45
2018-08-23T10:20:28.006Z,100570.81
2018-08-23T10:23:16.071Z,100562.87
2018-08-23T10:25:47.659Z,100556.89
2018-08-23T10:28:18.853Z,100552.78
2018-08-23T10:30:48.857Z,100555.79
2018-08-23T10:33:18.710Z,100555.48
2018-08-23T10:35:52.399Z,100548.38
2018-08-23T10:38:23.440Z,100543.25
2018-08-23T10:40:54.559Z,100545.53
2018-08-23T10:43:29.380Z,100536.57
2018-08-23T10:46:02.931Z,100535.41
2018-08-23T10:48:32.526Z,100525.73
2018-08-23T10:51:02.089Z,100532.23
2018-08-23T10:53:32.725Z,100532.50
2018-08-23T10:56:02.023Z,100527.19
2018-08-23T10:58:31.527Z,100530.30
2018-08-23T11:01:01.246Z,100525.39
2018-08-23T11:03:30.906Z,100530.14
2018-08-23T11:06:00.467Z,100487.23
2018-08-23T11:08:36.089Z,100531.78
2018-08-23T11:11:10.894Z,100532.86
2018-08-23T11:13:48.156Z,100523.14
2018-08-23T11:16:23.791Z,100509.17
2018-08-23T11:18:58.575Z,100510.28
2018-08-23T11:21:27.811Z,100506.48
2018-08-23T11:23:57.290Z,100508.13
2018-08-23T11:26:26.788Z,100504.25
2018-08-23T11:28:56.112Z,100494.07
2018-08-23T11:31:29.919Z,100494.55
2018-08-23T11:34:00.007Z,100493.11
2018-08-23T11:36:29.507Z,100496.77
2018-08-23T11:38:58.745Z,100497.55
2018-08-23T11:41:28.115Z,100490.31
2018-08-23T11:43:57.730Z,100485.73
2018-08-23T11:46:27.813Z,100480.06
2018-08-23T11:48:57.323Z,100482.06
2018-08-23T11:51:26.781Z,100482.30
2018-08-23T11:53:56.065Z,100474.17
2018-08-23T11:56:25.370Z,100481.44
2018-08-23T11:58:55.085Z,100483.97
2018-08-23T12:01:24.550Z,100483.59
2018-08-23T12:03:53.910Z,100482.77
2018-08-23T12:06:23.410Z,100481.45
2018-08-23T12:08:52.855Z,100459.19
2018-08-23T12:11:22.191Z,100475.30
2018-08-23T12:13:52.130Z,100475.30
2018-08-23T12:16:21.819Z,100474.22
2018-08-23T12:18:51.321Z,100473.12
2018-08-23T12:21:21.111Z,100469.50
2018-08-23T12:23:50.521Z,100468.16
2018-08-23T12:26:20.165Z,100474.37
2018-08-23T12:28:54.693Z,100461.77
2018-08-23T12:31:24.428Z,100465.13
2018-08-23T12:33:53.937Z,100458.00
2018-08-23T12:36:28.828Z,100458.31
2018-08-23T12:39:03.294Z,100453.30
2018-08-23T12:41:38.926Z,100453.29
2018-08-23T12:44:09.072Z,100449.70
2018-08-23T12:46:38.447Z,100447.32
2018-08-23T12:49:07.761Z,100445.16
2018-08-23T12:51:37.194Z,100446.02
2018-08-23T12:54:07.193Z,100441.91
2018-08-23T12:56:36.619Z,100441.66
2018-08-23T12:59:07.301Z,100439.16
2018-08-23T13:01:37.232Z,100430.97
2018-08-23T13:04:06.913Z,100425.78
2018-08-23T13:06:36.458Z,100419.48
2018-08-23T13:09:06.804Z,100420.58
2018-08-23T13:11:36.319Z,100415.04
2018-08-23T13:14:05.827Z,100412.89
2018-08-23T13:16:35.291Z,100404.05
2018-08-23T13:19:04.851Z,100401.95
2018-08-23T13:21:34.109Z,100403.50
2018-08-23T13:24:03.907Z,100403.20
2018-08-23T13:26:38.941Z,100400.29
2018-08-23T13:29:08.359Z,100394.81
2018-08-23T13:31:37.892Z,100390.22
2018-08-23T13:34:07.454Z,100386.37
2018-08-23T13:36:37.373Z,100383.02
2018-08-23T13:39:10.482Z,100381.12
2018-08-23T13:41:40.200Z,100386.91
2018-08-23T13:44:09.766Z,100369.68
2018-08-23T13:46:40.050Z,100365.98
2018-08-23T13:49:09.513Z,100370.39
2018-08-23T13:51:39.210Z,100364.48
2018-08-23T13:54:08.455Z,100366.67
2018-08-23T13:56:37.854Z,100367.77
2018-08-23T13:59:07.755Z,100361.47
2018-08-23T14:01:37.058Z,100362.31
2018-08-23T14:04:06.960Z,100365.30
2018-08-23T14:06:36.478Z,100366.46
2018-08-23T14:09:06.898Z,100370.86
2018-08-23T14:11:36.318Z,100375.29
2018-08-23T14:14:05.863Z,100372.58
2018-08-23T14:16:35.350Z,100360.45
2018-08-23T14:19:05.232Z,100362.75
2018-08-23T14:21:34.747Z,100359.95
2018-08-23T14:24:04.238Z,100361.98
2018-08-23T14:26:33.780Z,100362.81
2018-08-23T14:29:03.276Z,100365.61
2018-08-23T14:31:32.763Z,100352.59
2018-08-23T14:34:02.263Z,100349.13
2018-08-23T14:36:32.250Z,100349.05
2018-08-23T14:39:01.651Z,100351.39
2018-08-23T14:41:31.200Z,100353.55
2018-08-23T14:44:00.686Z,100347.27
2018-08-23T14:46:36.096Z,100340.74
2018-08-23T14:49:05.636Z,100342.17
2018-08-23T14:51:34.971Z,100340.77
2018-08-23T14:54:08.634Z,100340.73
2018-08-23T14:56:43.285Z,100331.72
2018-08-23T14:59:13.090Z,100331.55
2018-08-23T15:01:42.575Z,100328.64
2018-08-23T15:04:12.097Z,100314.94
2018-08-23T15:06:41.588Z,100316.88
2018-08-23T15:09:11.616Z,100315.25
2018-08-23T15:11:40.972Z,100310.82
2018-08-23T15:14:10.595Z,100308.59
2018-08-23T15:16:40.077Z,100297.73
2018-08-23T15:19:09.532Z,100297.62
2018-08-23T15:21:39.051Z,100299.23
2018-08-23T15:24:08.779Z,100299.80
2018-08-23T15:26:38.398Z,100299.87
2018-08-23T15:29:12.192Z,100293.91
2018-08-23T15:31:43.372Z,100297.95
2018-08-23T15:34:13.149Z,100296.11
2018-08-23T15:36:42.522Z,100291.17
2018-08-23T15:39:14.203Z,100289.00
2018-08-23T15:41:43.982Z,100289.75
2018-08-23T15:44:14.238Z,100281.89
2018-08-23T15:46:46.547Z,100283.00
2018-08-23T15:49:16.727Z,100281.34
2018-08-23T15:51:46.638Z,100283.20
2018-08-23T15:54:18.236Z,100284.90
2018-08-23T15:56:48.119Z,100283.66
2018-08-23T15:59:17.810Z,100284.22
2018-08-23T16:01:47.103Z,100281.52
2018-08-23T16:04:16.619Z,100281.73
2018-08-23T16:06:46.085Z,100290.07
2018-08-23T16:09:15.626Z,100285.13
2018-08-23T16:11:45.312Z,100286.22
2018-08-23T16:14:14.798Z,100285.80
2018-08-23T16:16:49.615Z,100296.39
2018-08-23T16:19:24.419Z,100290.11
2018-08-23T16:21:55.656Z,100289.73
2018-08-23T16:24:26.758Z,100300.75
2018-08-23T16:27:01.264Z,100291.59
2018-08-23T16:29:30.716Z,100302.84
2018-08-23T16:32:00.253Z,100303.09
2018-08-23T16:34:30.058Z,100296.09
2018-08-23T16:36:59.265Z,100294.94
2018-08-23T16:39:28.723Z,100297.78
2018-08-23T16:41:58.226Z,100306.01
2018-08-23T16:44:28.147Z,100307.38
2018-08-23T16:46:57.650Z,100305.47
2018-08-23T16:49:27.564Z,100307.23
2018-08-23T16:51:57.035Z,100296.25
2018-08-23T16:54:26.854Z,100296.80
2018-08-23T16:56:56.051Z,100302.02
2018-08-23T16:59:25.435Z,100299.97
2018-08-23T17:01:54.695Z,100300.74
2018-08-23T17:04:54.883Z,100299.21
2018-08-23T17:07:24.582Z,100295.34
2018-08-23T17:09:53.898Z,100301.63
2018-08-23T17:12:23.134Z,100299.55
2018-08-23T17:14:52.480Z,100302.06
2018-08-23T17:17:29.124Z,100299.70
2018-08-23T17:19:58.439Z,100301.15
2018-08-23T17:22:29.159Z,100301.37
2018-08-23T17:24:59.000Z,100298.48
2018-08-23T17:27:29.622Z,100305.02
2018-08-23T17:29:58.987Z,100315.95
2018-08-23T17:32:28.420Z,100308.86
2018-08-23T17:34:57.763Z,100312.59
2018-08-23T17:37:27.246Z,100319.04
2018-08-23T17:39:57.035Z,100316.61
2018-08-23T17:42:31.487Z,100320.18
2018-08-23T17:45:00.963Z,100320.70
2018-08-23T17:47:30.985Z,100327.58
2018-08-23T17:50:00.944Z,100324.34
2018-08-23T17:52:30.449Z,100331.92
2018-08-23T17:54:59.975Z,100339.88
2018-08-23T17:57:29.844Z,100341.23
2018-08-23T17:59:59.369Z,100341.30
2018-08-23T18:02:28.887Z,100339.50
2018-08-23T18:04:58.343Z,100340.67
2018-08-23T18:07:27.889Z,100338.25
2018-08-23T18:09:57.342Z,100345.87
2018-08-23T18:12:26.881Z,100349.01
2018-08-23T18:14:56.221Z,100346.11
2018-08-23T18:17:25.681Z,100350.97
2018-08-23T18:19:54.902Z,100350.62
2018-08-23T18:22:24.295Z,100357.16
2018-08-23T18:24:53.778Z,100353.70
2018-08-23T18:27:23.291Z,100353.61
2018-08-23T18:29:52.829Z,100358.31
2018-08-23T18:32:22.360Z,100359.76
2018-08-23T18:34:51.787Z,100366.04
2018-08-23T18:37:21.383Z,100367.18
2018-08-23T18:39:50.793Z,100373.45
2018-08-23T18:42:20.330Z,100371.90
2018-08-23T18:44:49.611Z,100375.03
2018-08-23T18:47:19.122Z,100384.03
2018-08-23T18:49:48.666Z,100385.36
2018-08-23T18:52:17.871Z,100391.01
2018-08-23T18:54:47.438Z,100349.44
2018-08-23T18:57:17.139Z,100397.58
2018-08-23T18:59:46.662Z,100398.50
2018-08-23T19:02:16.947Z,100401.14
2018-08-23T19:04:46.466Z,100406.20
2018-08-23T19:07:21.286Z,100406.97
2018-08-23T19:09:54.818Z,100404.91
2018-08-23T19:12:24.603Z,100404.47
2018-08-23T19:14:53.919Z,100407.84
2018-08-23T19:17:28.599Z,100403.37
2018-08-23T19:19:58.123Z,100403.14
2018-08-23T19:22:27.548Z,100399.48
2018-08-23T19:24:57.146Z,100411.38
2018-08-23T19:27:27.225Z,100410.73
2018-08-23T19:29:56.694Z,100412.16
2018-08-23T19:32:26.174Z,100415.78
2018-08-23T19:34:55.707Z,100412.63
2018-08-23T19:37:25.662Z,100407.79
2018-08-23T19:39:55.328Z,100415.91
2018-08-23T19:42:25.023Z,100413.72
2018-08-23T19:44:57.275Z,100405.53
2018-08-23T19:47:31.926Z,100406.12
2018-08-23T19:50:03.054Z,100411.45
2018-08-23T19:52:33.252Z,100411.45
2018-08-23T19:55:02.580Z,100409.98
2018-08-23T19:57:31.868Z,100413.23
2018-08-23T20:00:01.423Z,100412.08
2018-08-23T20:02:30.867Z,100412.22
2018-08-23T20:05:00.603Z,100411.55
2018-08-23T20:07:30.147Z,100409.60
2018-08-23T20:09:59.966Z,100411.95
2018-08-23T20:12:29.873Z,100412.53
2018-08-23T20:14:59.635Z,100405.63
2018-08-23T20:17:29.188Z,100398.73
2018-08-23T20:19:58.830Z,100393.40
2018-08-23T20:22:28.363Z,100395.65
2018-08-23T20:24:57.615Z,100389.03
2018-08-23T20:27:26.978Z,100393.47
2018-08-23T20:29:56.462Z,100392.34
2018-08-23T20:32:26.021Z,100387.61
2018-08-23T20:34:55.466Z,100394.11
2018-08-23T20:37:24.985Z,100390.03
2018-08-23T20:39:54.496Z,100391.42
2018-08-23T20:42:23.811Z,100394.28
2018-08-23T20:44:53.291Z,100389.69
2018-08-23T20:47:23.282Z,100390.87
2018-08-23T20:49:52.557Z,100397.28
2018-08-23T20:52:22.024Z,100396.66
2018-08-23T20:54:51.517Z,100402.19
2018-08-23T20:57:21.002Z,100412.65
2018-08-23T20:59:50.232Z,100408.59
2018-08-23T21:02:20.517Z,100417.05
2018-08-23T21:04:50.168Z,100422.47
2018-08-23T21:07:19.666Z,100419.42
2018-08-23T21:09:49.644Z,100422.51
2018-08-23T21:12:18.912Z,100422.58
2018-08-23T21:14:48.636Z,100421.98
2018-08-23T21:17:18.070Z,100425.55
2018-08-23T21:19:47.403Z,100421.68
2018-08-23T21:22:17.071Z,100420.44
2018-08-23T21:24:46.418Z,100417.56
2018-08-23T21:27:15.936Z,100408.81
2018-08-23T21:29:45.396Z,100414.67
2018-08-23T21:32:14.940Z,100418.14
2018-08-23T21:34:44.405Z,100416.39
2018-08-23T21:37:14.394Z,100415.91
2018-08-23T21:39:43.827Z,100412.72
2018-08-23T21:42:13.347Z,100421.48
2018-08-23T21:44:42.839Z,100417.20
2018-08-23T21:47:12.342Z,100416.09
2018-08-23T21:49:41.862Z,100416.81
2018-08-23T21:52:11.365Z,100412.38
2018-08-23T21:54:40.866Z,100410.22
2018-08-23T21:57:10.175Z,100413.34
2018-08-23T21:59:39.652Z,100416.13
2018-08-23T22:02:13.943Z,100419.37
2018-08-23T22:04:48.471Z,100422.37
2018-08-23T22:07:17.899Z,100423.27
2018-08-23T22:09:52.898Z,100422.00
2018-08-23T22:12:24.116Z,100420.77
2018-08-23T22:14:54.762Z,100415.16
2018-08-23T22:17:24.690Z,100415.38
2018-08-23T22:19:54.346Z,100419.56
2018-08-23T22:22:23.910Z,100410.41
2018-08-23T22:24:53.611Z,100413.31
2018-08-23T22:27:23.175Z,100409.36
2018-08-23T22:29:52.870Z,100412.36
2018-08-23T22:32:22.278Z,100410.70
2018-08-23T22:34:51.955Z,100410.14
2018-08-23T22:37:21.474Z,100407.89
2018-08-23T22:39:50.787Z,100409.45
2018-08-23T22:42:20.327Z,100402.70
2018-08-23T22:44:49.812Z,100397.59
2018-08-23T22:47:19.314Z,100396.81
2018-08-23T22:49:48.605Z,100395.86
2018-08-23T22:52:17.798Z,100389.94
2018-08-23T22:54:47.391Z,100392.59
2018-08-23T22:57:16.902Z,100392.84
2018-08-23T22:59:46.430Z,100386.17
2018-08-23T23:02:21.083Z,100380.13
2018-08-23T23:04:50.344Z,100373.47
2018-08-23T23:07:19.821Z,100372.21
2018-08-23T23:09:49.171Z,100373.88
2018-08-23T23:12:18.666Z,100374.42
2018-08-23T23:14:48.157Z,100364.42
2018-08-23T23:17:17.643Z,100366.76
2018-08-23T23:19:47.010Z,100360.93
2018-08-23T23:22:16.987Z,100366.91
2018-08-23T23:24:51.550Z,100365.97
2018-08-23T23:27:21.008Z,100370.28
2018-08-23T23:29:50.489Z,100370.89
2018-08-23T23:32:20.002Z,100366.90
2018-08-23T23:34:49.503Z,100362.30
2018-08-23T23:37:18.820Z,100364.11
2018-08-23T23:39:48.295Z,100361.30
2018-08-23T23:42:17.638Z,100357.38
2018-08-23T23:44:47.734Z,100362.71
2018-08-23T23:47:17.242Z,100351.42
2018-08-23T23:49:46.783Z,100358.99
2018-08-23T23:52:16.272Z,100359.50
2018-08-23T23:54:45.759Z,100354.30
2018-08-23T23:57:15.748Z,100356.63
2018-08-23T23:59:45.193Z,100353.06
